Time;durP1;ratioP1;P1;durP2;ratioP2;P2;SDS_P1;SDS_P2;PMS_P1;PMS_P2;Temp;Humidity;BMP_temperature;BMP_pressure;BME280_temperature;BME280_humidity;BME280_pressure;Samples;Min_cycle;Max_cycle;Signal;HPM_P1;HPM_P2
2022/03/05 00:00:00;;;;;;;4.68;1.58;;;;;;;-0.17;67.53;101717.03;5083252;28;20025;-67
2022/03/05 00:02:25;;;;;;;2.25;1.75;;;;;;;-0.20;67.65;101720.28;5083025;28;20108;-67
2022/03/05 00:04:51;;;;;;;4.30;1.77;;;;;;;-0.23;67.43;101720.13;5083252;28;20040;-67
2022/03/05 00:07:19;;;;;;;4.55;1.40;;;;;;;-0.30;67.22;101713.78;5083278;28;20507;-67
2022/03/05 00:09:45;;;;;;;2.47;1.33;;;;;;;-0.33;67.07;101717.81;5083411;28;20100;-67
2022/03/05 00:12:10;;;;;;;2.92;1.55;;;;;;;-0.35;66.61;101714.31;5083270;28;20028;-67
2022/03/05 00:14:36;;;;;;;5.43;1.40;;;;;;;-0.45;66.48;101700.13;5081856;28;20115;-65
2022/03/05 00:17:01;;;;;;;6.95;2.20;;;;;;;-0.54;66.16;101708.13;5082901;28;20042;-65
2022/03/05 00:19:26;;;;;;;4.82;1.73;;;;;;;-0.59;66.23;101719.75;5083412;28;20103;-65
2022/03/05 00:21:54;;;;;;;4.90;1.30;;;;;;;-0.62;66.35;101715.34;5086271;28;20466;-67
2022/03/05 00:24:19;;;;;;;4.75;1.58;;;;;;;-0.61;65.54;101704.34;5086953;28;20017;-66
2022/03/05 00:26:44;;;;;;;2.40;1.40;;;;;;;-0.54;64.82;101714.13;5087226;28;20040;-66
2022/03/05 00:29:10;;;;;;;1.63;1.38;;;;;;;-0.52;64.49;101712.53;5087065;28;20020;-66
2022/03/05 00:31:35;;;;;;;2.65;1.00;;;;;;;-0.57;64.09;101706.28;5086691;28;20046;-66
2022/03/05 00:34:01;;;;;;;1.52;1.35;;;;;;;-0.58;63.80;101712.19;5085732;28;20016;-66
2022/03/05 00:36:26;;;;;;;4.28;1.73;;;;;;;-0.61;63.59;101716.22;5086901;28;20349;-66
2022/03/05 00:38:52;;;;;;;2.55;1.38;;;;;;;-0.71;63.68;101709.69;5086946;28;20099;-67
2022/03/05 00:41:17;;;;;;;7.25;1.80;;;;;;;-0.72;63.60;101707.94;5086739;28;20419;-66
2022/03/05 00:43:42;;;;;;;4.78;2.00;;;;;;;-0.79;63.96;101722.00;5086627;28;20227;-66
2022/03/05 00:46:08;;;;;;;2.15;1.42;;;;;;;-0.80;64.26;101722.78;5086555;28;20527;-66
2022/03/05 00:48:33;;;;;;;4.15;1.63;;;;;;;-0.82;64.41;101720.16;5086804;28;20031;-66
2022/03/05 00:50:58;;;;;;;3.53;1.73;;;;;;;-0.81;64.48;101715.91;5086800;28;20051;-66
2022/03/05 00:53:24;;;;;;;8.98;1.75;;;;;;;-0.76;64.21;101712.88;5086729;28;20456;-66
2022/03/05 00:55:49;;;;;;;4.57;1.35;;;;;;;-0.70;63.30;101716.56;5086413;28;20027;-66
2022/03/05 00:58:14;;;;;;;5.50;1.38;;;;;;;-0.79;63.73;101706.69;5085089;28;20028;-66
2022/03/05 01:00:40;;;;;;;3.25;1.48;;;;;;;-0.76;63.48;101715.41;5086553;28;20324;-66
2022/03/05 01:03:06;;;;;;;2.90;1.23;;;;;;;-0.83;63.26;101715.81;5086185;28;20059;-66
2022/03/05 01:05:31;;;;;;;4.10;1.63;;;;;;;-0.83;62.66;101705.63;5086408;28;20453;-66
2022/03/05 01:07:56;;;;;;;1.40;1.30;;;;;;;-0.91;62.47;101699.22;5086337;28;20031;-66
2022/03/05 01:10:22;;;;;;;4.20;1.90;;;;;;;-0.97;62.53;101711.56;5086270;28;20544;-66
2022/03/05 01:12:47;;;;;;;4.40;1.92;;;;;;;-1.15;62.88;101712.25;5086431;28;20082;-66
2022/03/05 01:15:12;;;;;;;2.38;1.52;;;;;;;-1.26;63.47;101716.66;5086259;28;20052;-67
2022/03/05 01:17:38;;;;;;;7.95;2.28;;;;;;;-1.37;63.78;101713.44;5085914;28;20208;-67
2022/03/05 01:20:04;;;;;;;7.72;1.77;;;;;;;-1.39;63.86;101717.59;5086195;28;20032;-66
2022/03/05 01:22:29;;;;;;;2.42;1.52;;;;;;;-1.41;64.01;101707.31;5086133;28;20020;-68
2022/03/05 01:24:55;;;;;;;2.33;1.45;;;;;;;-1.26;63.85;101716.66;5085866;28;20040;-67
2022/03/05 01:27:22;;;;;;;2.33;1.52;;;;;;;-1.17;63.08;101703.59;5086206;28;20024;-67
2022/03/05 01:29:48;;;;;;;4.97;1.67;;;;;;;-0.98;62.17;101704.72;5085705;28;20065;-66
2022/03/05 01:32:14;;;;;;;2.40;1.65;;;;;;;-0.96;61.78;101708.25;5085191;28;20027;-66
2022/03/05 01:34:39;;;;;;;3.67;1.50;;;;;;;-0.97;61.54;101702.25;5085900;28;20020;-66
2022/03/05 01:37:04;;;;;;;2.15;1.30;;;;;;;-0.95;61.34;101715.09;5084376;28;20043;-67
2022/03/05 01:39:30;;;;;;;3.90;1.98;;;;;;;-1.00;60.98;101704.63;5085830;28;20024;-67
2022/03/05 01:41:56;;;;;;;2.13;1.33;;;;;;;-1.02;60.94;101699.44;5085707;28;20024;-67
2022/03/05 01:44:22;;;;;;;3.13;1.88;;;;;;;-1.12;60.82;101704.78;5085430;28;20174;-67
2022/03/05 01:46:48;;;;;;;2.17;1.70;;;;;;;-1.27;61.20;101695.41;5085249;28;20020;-67
2022/03/05 01:49:13;;;;;;;4.85;1.42;;;;;;;-1.27;61.28;101697.97;5084463;28;20024;-67
2022/03/05 01:51:41;;;;;;;4.18;1.20;;;;;;;-1.28;61.16;101690.22;5085720;28;20082;-67
2022/03/05 01:54:07;;;;;;;2.30;1.95;;;;;;;-1.26;60.85;101684.41;5085341;28;20481;-67
2022/03/05 01:56:34;;;;;;;1.13;1.02;;;;;;;-1.27;61.14;101694.50;5085541;28;20042;-67
2022/03/05 01:59:00;;;;;;;3.35;1.60;;;;;;;-1.34;61.08;101690.69;5085588;28;20020;-67
2022/03/05 02:01:27;;;;;;;2.80;1.50;;;;;;;-1.34;61.10;101692.41;5085010;28;20035;-67
2022/03/05 02:03:53;;;;;;;1.65;1.25;;;;;;;-1.38;61.37;101693.88;5085195;28;20097;-67
2022/03/05 02:06:20;;;;;;;1.13;1.02;;;;;;;-1.36;61.15;101694.84;5085151;28;20024;-67
2022/03/05 02:08:46;;;;;;;5.90;1.55;;;;;;;-1.44;61.25;101698.59;5085250;28;20021;-67
2022/03/05 02:11:11;;;;;;;4.25;1.30;;;;;;;-1.47;61.08;101696.72;5085131;28;20031;-68
2022/03/05 02:13:36;;;;;;;3.03;1.15;;;;;;;-1.48;61.18;101696.63;5085316;28;20468;-67
2022/03/05 02:16:02;;;;;;;2.40;1.23;;;;;;;-1.55;61.31;101693.69;5083630;28;20047;-67
2022/03/05 02:18:28;;;;;;;4.28;1.40;;;;;;;-1.54;61.44;101699.69;5084658;28;20028;-68
2022/03/05 02:20:55;;;;;;;2.95;1.92;;;;;;;-1.56;61.43;101693.59;5084905;28;20024;-67
2022/03/05 02:23:20;;;;;;;3.33;1.50;;;;;;;-1.51;61.14;101692.22;5084948;28;20050;-67
2022/03/05 02:26:02;;;;;;;3.88;1.85;;;;;;;-1.50;61.14;101694.84;5084694;28;20028;-67
2022/03/05 02:28:29;;;;;;;;;;;;;;;-1.41;60.85;101689.47;5085393;28;20047;-67
2022/03/05 02:30:55;;;;;;;3.65;1.52;;;;;;;-1.55;60.41;101675.00;5084749;28;19931;-68
2022/03/05 02:33:21;;;;;;;4.22;1.50;;;;;;;-1.62;60.63;101689.00;5084575;28;20407;-67
2022/03/05 02:35:47;;;;;;;2.35;1.10;;;;;;;-1.70;60.75;101691.09;5083372;28;20021;-67
2022/03/05 02:38:17;;;;;;;3.20;1.23;;;;;;;-1.71;60.95;101688.44;5084745;28;20025;-68
2022/03/05 02:40:44;;;;;;;3.13;1.80;;;;;;;-1.76;60.81;101689.00;5084434;28;20034;-67
2022/03/05 02:43:10;;;;;;;5.35;2.10;;;;;;;-1.80;60.86;101693.81;5084134;28;20040;-67
2022/03/05 02:45:36;;;;;;;1.00;0.90;;;;;;;-1.87;61.01;101680.69;5083670;28;20028;-67
2022/03/05 02:48:04;;;;;;;4.72;2.45;;;;;;;-1.94;60.93;101677.69;5084298;28;20095;-67
2022/03/05 02:50:30;;;;;;;3.75;1.38;;;;;;;-1.97;60.94;101680.91;5082883;28;20376;-67
2022/03/05 02:52:55;;;;;;;3.28;1.80;;;;;;;-2.02;61.04;101682.28;5084242;28;20476;-67
2022/03/05 02:55:21;;;;;;;3.30;1.55;;;;;;;-2.04;61.06;101679.63;5083023;28;20099;-66
2022/03/05 02:57:47;;;;;;;3.67;1.45;;;;;;;-2.07;60.99;101688.72;5084527;28;20062;-67
2022/03/05 03:00:13;;;;;;;4.43;1.60;;;;;;;-2.09;60.90;101675.91;5084017;28;20024;-67
2022/03/05 03:02:38;;;;;;;3.60;1.02;;;;;;;-2.10;61.15;101673.28;5084002;28;20464;-67
2022/03/05 03:05:05;;;;;;;1.65;1.17;;;;;;;-2.07;61.00;101674.34;5084174;28;20059;-67
2022/03/05 03:07:30;;;;;;;2.97;1.58;;;;;;;-2.05;60.78;101679.53;5082774;28;20102;-67
2022/03/05 03:09:56;;;;;;;4.20;1.40;;;;;;;-2.09;60.82;101680.13;5083918;28;20064;-66
2022/03/05 03:12:22;;;;;;;2.85;1.48;;;;;;;-2.15;60.98;101678.06;5084047;28;20028;-67
2022/03/05 03:14:47;;;;;;;2.20;1.02;;;;;;;-2.22;61.03;101674.22;5083892;28;20499;-67
2022/03/05 03:17:13;;;;;;;2.95;1.60;;;;;;;-2.24;61.17;101691.09;5083779;28;20429;-67
2022/03/05 03:19:38;;;;;;;3.15;1.35;;;;;;;-2.25;60.91;101684.22;5084011;28;20016;-67
2022/03/05 03:22:04;;;;;;;2.95;1.50;;;;;;;-2.26;60.82;101683.34;5083898;28;20025;-67
2022/03/05 03:24:29;;;;;;;3.15;1.65;;;;;;;-2.22;60.62;101683.56;5083807;28;20025;-67
2022/03/05 03:26:55;;;;;;;7.53;1.65;;;;;;;-2.19;60.49;101683.75;5083724;28;20086;-66
2022/03/05 03:29:20;;;;;;;1.52;1.35;;;;;;;-2.20;60.44;101689.59;5083656;28;20544;-67
2022/03/05 03:31:45;;;;;;;3.13;1.42;;;;;;;-2.21;60.29;101690.41;5083376;28;20024;-67
2022/03/05 03:34:11;;;;;;;3.70;1.48;;;;;;;-2.24;60.48;101694.50;5082487;28;20051;-67
2022/03/05 03:36:36;;;;;;;4.88;1.73;;;;;;;-2.27;60.39;101691.75;5083673;28;20078;-67
2022/03/05 03:39:02;;;;;;;3.38;2.30;;;;;;;-2.31;60.47;101692.34;5083657;28;20020;-67
2022/03/05 03:41:27;;;;;;;2.55;1.25;;;;;;;-2.29;60.27;101695.88;5083558;28;20021;-67
2022/03/05 03:43:53;;;;;;;5.00;1.92;;;;;;;-2.35;60.48;101698.03;5083342;28;20430;-67
2022/03/05 03:46:18;;;;;;;2.25;1.60;;;;;;;-2.40;60.63;101695.19;5065105;28;20169;-67
2022/03/05 03:48:43;;;;;;;3.03;1.70;;;;;;;-2.42;60.66;101703.47;5082243;28;20032;-67
2022/03/05 03:51:09;;;;;;;4.80;1.67;;;;;;;-2.48;60.91;101698.88;5083599;28;20458;-67
2022/03/05 03:53:34;;;;;;;1.88;1.25;;;;;;;-2.45;60.65;101699.06;5083493;28;20025;-66
2022/03/05 03:55:59;;;;;;;4.47;1.58;;;;;;;-2.54;61.02;101693.38;5083333;28;20052;-66
2022/03/05 03:58:25;;;;;;;3.63;1.60;;;;;;;-2.51;60.96;101696.13;5083529;28;20036;-66
2022/03/05 04:00:50;;;;;;;5.97;1.90;;;;;;;-2.65;61.20;101691.00;5083339;28;20021;-66
2022/03/05 04:03:15;;;;;;;1.67;0.93;;;;;;;-2.66;61.07;101690.91;5083049;28;20108;-67
2022/03/05 04:05:41;;;;;;;2.58;1.20;;;;;;;-2.65;61.37;101696.09;5083304;28;20046;-67
2022/03/05 04:10:50;;;;;;;3.00;1.73;;;;;;;-2.72;61.50;101691.38;5083298;28;20023;-67
2022/03/05 04:13:16;;;;;;;4.18;2.17;;;;;;;-2.75;61.66;101697.13;5083418;28;20024;-65
2022/03/05 04:15:41;;;;;;;2.17;1.55;;;;;;;-2.82;61.57;101684.78;5083214;28;20020;-67
2022/03/05 04:18:07;;;;;;;4.63;1.60;;;;;;;-2.80;61.78;101695.97;5083042;28;20088;-65
2022/03/05 04:20:33;;;;;;;1.85;1.05;;;;;;;-2.75;61.75;101698.81;5083133;28;20477;-67
2022/03/05 04:22:59;;;;;;;3.80;1.40;;;;;;;-2.85;61.91;101694.75;5081811;28;20027;-67
2022/03/05 04:25:25;;;;;;;3.28;1.48;;;;;;;-2.89;61.99;101697.88;5081690;28;20044;-66
2022/03/05 04:27:51;;;;;;;2.22;1.30;;;;;;;-2.90;62.24;101693.56;5083274;28;20123;-66
2022/03/05 04:30:16;;;;;;;2.70;1.45;;;;;;;-2.89;62.21;101696.19;5083106;28;20479;-66
2022/03/05 04:32:42;;;;;;;2.65;1.58;;;;;;;-2.94;62.34;101689.06;5081593;28;20021;-66
2022/03/05 04:35:08;;;;;;;1.50;1.00;;;;;;;-2.88;62.26;101694.56;5083229;28;20047;-67
2022/03/05 04:37:34;;;;;;;4.10;1.55;;;;;;;-2.87;62.48;101699.75;5083286;28;20050;-67
2022/03/05 04:39:59;;;;;;;2.65;1.23;;;;;;;-2.86;62.42;101696.41;5083020;28;20020;-66
2022/03/05 04:42:25;;;;;;;2.45;1.13;;;;;;;-2.82;62.52;101699.16;5083020;28;20032;-67
2022/03/05 04:44:50;;;;;;;2.40;1.48;;;;;;;-2.89;62.54;101700.44;5082900;28;20404;-66
2022/03/05 04:47:15;;;;;;;1.92;1.52;;;;;;;-2.89;62.64;101705.50;5082719;28;20066;-67
2022/03/05 04:49:41;;;;;;;4.30;1.92;;;;;;;-2.89;62.79;101702.97;5083142;28;20020;-66
2022/03/05 04:52:06;;;;;;;4.20;1.42;;;;;;;-2.96;62.90;101698.22;5081535;28;20051;-66
2022/03/05 04:54:33;;;;;;;4.32;1.70;;;;;;;-2.84;62.84;101701.59;5082911;28;20040;-66
2022/03/05 04:56:59;;;;;;;2.10;1.42;;;;;;;-2.89;62.86;101702.97;5082899;28;20472;-67
2022/03/05 04:59:24;;;;;;;1.80;1.40;;;;;;;-2.86;63.17;101705.72;5082737;28;20036;-67
2022/03/05 05:01:50;;;;;;;4.22;1.92;;;;;;;-2.91;63.58;101704.50;5082611;28;20030;-66
2022/03/05 05:04:15;;;;;;;1.30;0.90;;;;;;;-2.84;63.15;101701.59;5082821;28;20465;-66
2022/03/05 05:06:40;;;;;;;1.70;0.93;;;;;;;-2.70;63.38;101694.03;5081342;28;20021;-67
2022/03/05 05:09:06;;;;;;;1.27;1.10;;;;;;;-2.72;63.58;101698.13;5085941;28;20446;-67
2022/03/05 05:11:31;;;;;;;3.65;1.42;;;;;;;-2.76;63.61;101700.47;5086383;28;20028;-67
2022/03/05 05:13:56;;;;;;;1.48;1.30;;;;;;;-2.74;63.76;101695.47;5086270;28;20337;-67
2022/03/05 05:16:22;;;;;;;3.15;1.15;;;;;;;-2.71;63.76;101693.13;5085937;28;20024;-66
2022/03/05 05:21:31;;;;;;;3.35;1.42;;;;;;;-2.74;64.03;101706.53;5086119;28;20750;-67
2022/03/05 05:23:57;;;;;;;1.63;0.93;;;;;;;-2.78;64.10;101704.53;5086284;28;20336;-68
2022/03/05 05:26:22;;;;;;;1.08;0.98;;;;;;;-2.75;64.20;101706.44;5086007;28;20028;-67
2022/03/05 05:28:48;;;;;;;1.13;1.00;;;;;;;-2.71;63.88;101697.31;5085906;28;20478;-68
2022/03/05 05:31:13;;;;;;;1.63;1.25;;;;;;;-2.75;64.13;101708.97;5084703;28;20024;-68
2022/03/05 05:33:43;;;;;;;1.58;0.80;;;;;;;-2.81;64.35;101706.88;5085796;28;20088;-68
2022/03/05 05:36:09;;;;;;;2.17;1.17;;;;;;;-2.87;64.69;101703.94;5086105;28;20029;-67
2022/03/05 05:38:34;;;;;;;6.72;1.25;;;;;;;-2.90;64.87;101712.25;5085881;28;20032;-67
2022/03/05 05:41:00;;;;;;;3.83;1.40;;;;;;;-3.03;65.18;101707.97;5084490;28;20044;-67
2022/03/05 05:43:26;;;;;;;2.50;1.20;;;;;;;-3.07;65.34;101712.75;5084210;28;20044;-68
2022/03/05 05:45:51;;;;;;;2.45;1.65;;;;;;;-3.19;65.41;101708.59;5085653;28;20035;-68
2022/03/05 05:48:16;;;;;;;4.07;1.60;;;;;;;-3.16;65.50;101716.41;5085468;28;20102;-68
2022/03/05 05:50:43;;;;;;;3.72;1.30;;;;;;;-3.16;65.83;101718.94;5085684;28;20040;-68
2022/03/05 05:53:08;;;;;;;7.15;2.03;;;;;;;-3.19;65.94;101728.00;5085725;28;20024;-68
2022/03/05 05:55:33;;;;;;;5.57;1.85;;;;;;;-3.22;66.22;101725.25;5085572;28;20044;-67
2022/03/05 05:57:59;;;;;;;1.23;0.93;;;;;;;-3.17;66.51;101729.00;5085664;28;20349;-68
2022/03/05 06:00:24;;;;;;;4.15;1.40;;;;;;;-3.18;66.64;101734.88;5085304;28;20290;-68
2022/03/05 06:02:49;;;;;;;2.95;1.58;;;;;;;-3.18;66.49;101734.88;5085133;28;20101;-68
2022/03/05 06:05:15;;;;;;;1.90;1.33;;;;;;;-3.24;66.72;101726.03;5084015;28;20036;-68
2022/03/05 06:07:40;;;;;;;2.75;1.33;;;;;;;-3.25;66.93;101731.03;5085219;28;20090;-68
2022/03/05 06:10:07;;;;;;;1.20;1.08;;;;;;;-3.26;67.19;101737.75;5084023;28;20021;-67
2022/03/05 06:12:32;;;;;;;4.85;1.58;;;;;;;-3.24;67.01;101741.28;5085349;28;20352;-67
2022/03/05 06:14:58;;;;;;;2.88;1.00;;;;;;;-3.28;67.34;101731.69;5085363;28;20055;-68
2022/03/05 06:17:23;;;;;;;2.28;1.65;;;;;;;-3.17;67.14;101749.34;5083577;28;20021;-68
2022/03/05 06:19:48;;;;;;;1.58;1.23;;;;;;;-3.27;67.54;101756.31;5085213;28;20066;-68
2022/03/05 06:22:14;;;;;;;3.22;1.48;;;;;;;-3.29;67.58;101752.78;5085070;28;20032;-68
2022/03/05 06:24:39;;;;;;;4.65;1.50;;;;;;;-3.31;67.54;101751.81;5084722;28;20016;-68
2022/03/05 06:27:04;;;;;;;2.25;1.30;;;;;;;-3.30;67.83;101752.66;5085134;28;20036;-68
2022/03/05 06:29:30;;;;;;;4.22;2.25;;;;;;;-3.28;67.47;101746.94;5084829;28;20544;-68
2022/03/05 06:31:58;;;;;;;4.28;2.17;;;;;;;-3.26;67.86;101747.91;5084324;28;20020;-68
2022/03/05 06:34:23;;;;;;;1.67;1.13;;;;;;;-3.23;68.01;101747.25;5084956;28;20043;-68
2022/03/05 06:36:49;;;;;;;4.10;1.88;;;;;;;-3.16;68.02;101748.53;5084580;28;20502;-67
2022/03/05 06:39:14;;;;;;;2.92;2.33;;;;;;;-3.09;68.13;101750.75;5084647;28;20024;-68
2022/03/05 06:41:40;;;;;;;4.60;2.00;;;;;;;-2.93;68.15;101747.63;5084497;28;20024;-68
2022/03/05 06:44:06;;;;;;;5.88;1.58;;;;;;;-2.54;68.18;101751.88;5084184;28;20037;-68
2022/03/05 06:46:32;;;;;;;5.47;1.73;;;;;;;-2.18;67.78;101734.75;5084023;28;20043;-68
2022/03/05 06:48:57;;;;;;;2.28;1.63;;;;;;;-1.57;67.76;101758.06;5084456;28;20024;-68
2022/03/05 06:51:23;;;;;;;3.30;1.60;;;;;;;-1.16;67.13;101741.03;5084430;28;20025;-68
2022/03/05 06:53:48;;;;;;;6.43;2.45;;;;;;;-0.68;65.80;101746.47;5084510;28;20024;-68
2022/03/05 06:56:14;;;;;;;2.88;1.67;;;;;;;-0.31;64.63;101741.75;5083052;28;20055;-67
2022/03/05 06:58:39;;;;;;;5.93;1.88;;;;;;;-0.02;63.87;101745.97;5084201;28;20027;-68
2022/03/05 07:01:05;;;;;;;3.05;1.90;;;;;;;0.30;63.47;101755.38;5083900;28;20131;-69
2022/03/05 07:03:30;;;;;;;3.03;1.70;;;;;;;0.70;64.04;101755.00;5083865;28;20028;-68
2022/03/05 07:05:55;;;;;;;3.63;1.75;;;;;;;1.22;63.46;101750.91;5083973;28;20024;-68
2022/03/05 07:08:21;;;;;;;5.13;2.25;;;;;;;1.74;61.91;101748.34;5082516;28;20027;-68
2022/03/05 07:10:46;;;;;;;5.13;2.10;;;;;;;2.25;62.39;101743.94;5082394;28;20032;-68
2022/03/05 07:13:11;;;;;;;5.28;1.90;;;;;;;2.91;61.87;101748.66;5083759;28;20051;-68
2022/03/05 07:15:37;;;;;;;3.20;1.92;;;;;;;3.45;60.74;101732.16;5082527;28;20025;-68
2022/03/05 07:18:02;;;;;;;5.70;2.20;;;;;;;4.07;60.65;101744.06;5083412;28;20020;-68
2022/03/05 07:20:27;;;;;;;4.50;1.90;;;;;;;4.82;60.35;101751.22;5084006;28;20084;-68
2022/03/05 07:22:53;;;;;;;6.18;2.28;;;;;;;5.55;59.65;101743.47;5082497;28;20460;-68
2022/03/05 07:25:18;;;;;;;6.78;2.38;;;;;;;6.42;58.85;101755.69;5083555;28;20089;-69
2022/03/05 07:27:43;;;;;;;5.38;2.10;;;;;;;7.12;57.13;101746.53;5083789;28;20569;-68
2022/03/05 07:30:10;;;;;;;7.53;3.00;;;;;;;7.49;55.92;101738.84;5098686;28;20385;-68
2022/03/05 07:32:36;;;;;;;4.35;2.15;;;;;;;7.72;55.28;101750.63;5083129;28;20112;-68
2022/03/05 07:35:03;;;;;;;3.65;1.73;;;;;;;8.08;54.45;101752.38;5083571;28;20028;-68
2022/03/05 07:37:29;;;;;;;5.30;2.30;;;;;;;7.87;52.38;101745.84;5083487;28;20016;-71
2022/03/05 07:39:54;;;;;;;7.82;2.08;;;;;;;7.39;51.81;101740.34;5083385;28;20027;-68
2022/03/05 07:42:19;;;;;;;3.58;2.20;;;;;;;6.84;51.43;101752.63;5083429;28;20024;-68
2022/03/05 07:44:45;;;;;;;5.32;2.40;;;;;;;6.48;52.39;101751.56;5083296;28;20040;-68
2022/03/05 07:47:10;;;;;;;4.40;2.50;;;;;;;6.45;53.03;101752.34;5083251;28;20021;-68
2022/03/05 07:49:35;;;;;;;6.22;2.38;;;;;;;6.41;52.94;101750.50;5083575;28;20126;-69
2022/03/05 07:52:01;;;;;;;3.53;2.08;;;;;;;6.53;53.48;101756.03;5083544;28;20020;-67
2022/03/05 07:54:27;;;;;;;6.55;2.55;;;;;;;6.83;53.62;101751.72;5083546;28;20060;-67
2022/03/05 07:56:52;;;;;;;4.85;2.25;;;;;;;7.06;52.52;101754.97;5083450;28;20221;-67
2022/03/05 07:59:18;;;;;;;5.93;2.67;;;;;;;7.16;52.42;101763.84;5083232;28;20086;-68
2022/03/05 08:01:44;;;;;;;5.43;2.47;;;;;;;7.32;52.17;101764.25;5083206;28;20106;-69
2022/03/05 08:04:09;;;;;;;6.72;2.75;;;;;;;7.47;51.47;101757.75;5083241;28;20020;-68
2022/03/05 08:06:34;;;;;;;10.55;2.70;;;;;;;7.50;51.64;101752.66;5083499;28;20033;-68
2022/03/05 08:09:00;;;;;;;4.43;2.72;;;;;;;7.49;50.55;101756.94;5083313;28;20343;-67
2022/03/05 08:11:25;;;;;;;6.90;2.80;;;;;;;7.37;50.72;101762.69;5083153;28;20027;-67
2022/03/05 08:13:51;;;;;;;6.15;2.72;;;;;;;7.41;50.70;101758.47;5083175;28;20055;-68
2022/03/05 08:16:16;;;;;;;5.95;2.40;;;;;;;7.67;50.63;101766.91;5082800;28;20021;-68
2022/03/05 08:18:41;;;;;;;7.05;2.28;;;;;;;8.00;50.49;101764.25;5082949;28;20055;-68
2022/03/05 08:21:07;;;;;;;6.95;2.72;;;;;;;8.45;49.50;101769.59;5081735;28;20017;-67
2022/03/05 08:23:33;;;;;;;6.30;3.10;;;;;;;8.66;48.52;101767.50;5083247;28;20024;-67
2022/03/05 08:25:58;;;;;;;5.50;2.88;;;;;;;8.92;47.93;101754.22;5083080;28;20027;-67
2022/03/05 08:28:23;;;;;;;3.88;2.42;;;;;;;9.31;46.92;101761.88;5083268;28;20491;-67
2022/03/05 08:30:49;;;;;;;9.48;3.00;;;;;;;9.57;46.19;101756.28;5082928;28;20028;-67
2022/03/05 08:33:17;;;;;;;7.25;3.03;;;;;;;9.90;45.20;101756.84;5082558;28;20059;-67
2022/03/05 08:35:42;;;;;;;9.48;3.03;;;;;;;10.33;44.72;101756.63;5083059;28;20016;-67
2022/03/05 08:38:07;;;;;;;7.15;2.95;;;;;;;10.74;43.80;101760.66;5082786;28;20039;-68
2022/03/05 08:40:33;;;;;;;3.95;2.35;;;;;;;11.09;42.82;101756.72;5082935;28;20025;-67
2022/03/05 08:42:58;;;;;;;7.88;2.92;;;;;;;11.26;42.54;101759.50;5082655;28;20032;-68
2022/03/05 08:45:24;;;;;;;7.93;3.20;;;;;;;11.38;42.28;101750.97;5086605;28;20042;-68
2022/03/05 08:47:50;;;;;;;5.90;2.83;;;;;;;11.52;42.07;101752.81;5086475;28;20388;-68
2022/03/05 08:50:15;;;;;;;6.03;2.60;;;;;;;11.68;41.66;101748.63;5086766;28;20027;-68
2022/03/05 08:52:41;;;;;;;7.30;2.90;;;;;;;11.93;40.87;101753.16;5086668;28;20076;-67
2022/03/05 08:55:10;;;;;;;9.20;2.50;;;;;;;12.12;40.83;101749.84;5086883;28;20043;-67
2022/03/05 08:57:36;;;;;;;7.70;3.22;;;;;;;12.23;40.99;101754.28;5086751;28;20032;-68
2022/03/05 09:00:03;;;;;;;6.22;2.75;;;;;;;12.41;41.03;101753.53;5086272;28;20016;-67
2022/03/05 09:02:29;;;;;;;4.45;2.50;;;;;;;12.55;40.35;101753.59;5084738;28;20016;-67
2022/03/05 09:04:54;;;;;;;6.88;2.97;;;;;;;12.73;40.15;101742.38;5086401;28;20036;-67
2022/03/05 09:07:19;;;;;;;8.13;2.67;;;;;;;12.92;39.39;101745.06;5086449;28;20035;-68
2022/03/05 09:09:45;;;;;;;8.75;3.08;;;;;;;12.79;40.06;101748.47;5086496;28;20048;-68
2022/03/05 09:12:10;;;;;;;6.90;3.05;;;;;;;12.81;39.96;101749.38;5086227;28;20024;-70
2022/03/05 09:14:36;;;;;;;7.82;3.15;;;;;;;12.81;40.49;101745.00;5086144;28;20073;-68
2022/03/05 09:17:01;;;;;;;5.18;2.53;;;;;;;12.68;39.92;101753.66;5085933;28;20119;-68
2022/03/05 09:19:26;;;;;;;6.60;2.60;;;;;;;12.46;39.88;101758.75;5086341;28;20013;-69
2022/03/05 09:21:52;;;;;;;5.43;2.20;;;;;;;12.18;40.60;101750.75;5085997;28;20025;-67
2022/03/05 09:24:17;;;;;;;6.55;2.67;;;;;;;12.15;40.16;101762.03;5084503;28;20071;-66
2022/03/05 09:26:42;;;;;;;6.60;2.90;;;;;;;12.05;41.04;101763.66;5086161;28;20028;-66
2022/03/05 09:29:08;;;;;;;6.28;2.80;;;;;;;12.06;41.08;101754.13;5085887;28;20016;-64
2022/03/05 09:31:33;;;;;;;4.82;2.10;;;;;;;12.12;40.79;101762.88;5085859;28;20027;-64
2022/03/05 09:33:59;;;;;;;5.35;1.90;;;;;;;11.97;41.41;101750.59;5085642;28;20070;-65
2022/03/05 09:36:24;;;;;;;10.15;2.45;;;;;;;11.87;40.37;101756.56;5085912;28;20051;-67
2022/03/05 09:38:49;;;;;;;7.80;2.20;;;;;;;11.52;40.79;101748.50;5085881;28;20055;-64
2022/03/05 09:41:15;;;;;;;5.82;2.35;;;;;;;11.27;41.30;101745.66;5085593;28;20324;-63
2022/03/05 09:43:43;;;;;;;6.75;2.50;;;;;;;11.14;41.98;101747.25;5085464;28;20037;-67
2022/03/05 09:46:10;;;;;;;5.18;2.33;;;;;;;10.96;41.58;101742.72;5085255;28;20024;-62
2022/03/05 09:48:37;;;;;;;7.80;2.58;;;;;;;10.36;41.64;101746.28;5085331;28;20063;-62
2022/03/05 09:51:02;;;;;;;8.00;2.47;;;;;;;9.60;42.68;101748.53;5085549;28;20017;-62
2022/03/05 09:53:29;;;;;;;6.93;2.50;;;;;;;8.97;43.91;101751.72;5084984;28;20029;-62
2022/03/05 09:55:54;;;;;;;7.25;2.30;;;;;;;8.50;45.19;101758.47;5085158;28;20020;-64
2022/03/05 09:58:20;;;;;;;9.02;2.47;;;;;;;8.06;45.67;101760.09;5085434;28;20028;-64
2022/03/05 10:00:45;;;;;;;5.07;2.35;;;;;;;7.59;45.91;101750.31;5084893;28;20473;-64
2022/03/05 10:03:14;;;;;;;9.65;2.05;;;;;;;7.23;46.53;101753.69;5084803;28;20035;-64
2022/03/05 10:05:40;;;;;;;6.63;1.65;;;;;;;7.13;48.01;101753.44;5084979;28;20025;-64
2022/03/05 10:08:12;;;;;;;7.25;1.65;;;;;;;7.23;47.74;101758.84;5084957;28;20395;-64
2022/03/05 10:10:51;;;;;;;9.15;1.85;;;;;;;7.14;47.83;101755.16;5084418;28;20042;-63
2022/03/05 10:13:25;;;;;;;4.35;1.40;;;;;;;7.06;47.85;101754.97;5085122;28;20074;-63
2022/03/05 10:15:54;;;;;;;7.20;1.95;;;;;;;6.87;48.26;101752.72;5084213;28;20048;-65
2022/03/05 10:18:34;;;;;;;5.00;1.48;;;;;;;6.66;48.54;101756.41;5083955;28;20427;-64
2022/03/05 10:21:01;;;;;;;8.40;2.13;;;;;;;6.44;49.29;101760.91;5084111;28;20035;-64
2022/03/05 10:23:30;;;;;;;3.78;2.00;;;;;;;6.25;49.62;101757.75;5084230;28;20380;-64
2022/03/05 10:25:56;;;;;;;4.40;1.42;;;;;;;6.15;49.95;101755.72;5084261;28;20074;-65
2022/03/05 10:28:26;;;;;;;5.15;1.98;;;;;;;6.09;49.85;101761.56;5083945;28;20032;-64
2022/03/05 10:31:02;;;;;;;8.70;1.65;;;;;;;5.86;50.58;101765.94;5083945;28;20574;-64
2022/03/05 10:33:35;;;;;;;9.48;2.33;;;;;;;5.63;50.89;101760.88;5083683;28;20024;-63
2022/03/05 10:36:04;;;;;;;7.30;2.35;;;;;;;5.37;51.80;101766.03;5083934;28;20028;-64
2022/03/05 10:38:56;;;;;;;15.77;5.78;;;;;;;5.26;52.27;101763.03;5083788;28;20123;-63
2022/03/05 10:41:30;;;;;;;8.23;2.25;;;;;;;5.29;53.03;101770.88;5083801;28;20032;-64
2022/03/05 10:44:06;;;;;;;9.70;2.03;;;;;;;5.51;52.36;101764.78;5083458;28;20068;-63
2022/03/05 10:46:37;;;;;;;6.18;1.92;;;;;;;5.44;52.57;101767.97;5083614;28;20020;-66
2022/03/05 10:49:29;;;;;;;7.15;2.00;;;;;;;5.25;53.27;101767.34;5083323;28;20301;-64
2022/03/05 10:52:00;;;;;;;4.07;1.98;;;;;;;5.06;53.58;101758.06;5081990;28;20107;-64
2022/03/05 10:54:38;;;;;;;4.10;2.17;;;;;;;5.07;53.97;101750.41;5084331;28;20028;-66
2022/03/05 10:57:18;;;;;;;6.95;1.70;;;;;;;5.10;53.03;101762.50;5084149;28;20592;-64
2022/03/05 10:59:46;;;;;;;2.70;1.30;;;;;;;5.02;53.73;101763.91;5083901;28;20084;-65
2022/03/05 11:02:14;;;;;;;5.38;1.85;;;;;;;5.57;53.84;101758.97;5083628;28;20059;-65
2022/03/05 11:04:42;;;;;;;3.65;1.98;;;;;;;6.93;51.42;101755.47;5083705;28;20027;-65
2022/03/05 11:07:07;;;;;;;7.07;1.65;;;;;;;8.12;47.93;101759.38;5083373;28;20020;-64
2022/03/05 11:09:36;;;;;;;31.77;3.30;;;;;;;8.77;46.77;101749.59;5083836;28;20017;-68
2022/03/05 11:12:02;;;;;;;6.60;1.60;;;;;;;9.57;44.83;101747.63;5082500;28;20046;-67
2022/03/05 11:14:28;;;;;;;6.00;1.95;;;;;;;10.25;43.96;101742.66;5083900;28;20078;-66
2022/03/05 11:16:55;;;;;;;4.88;1.80;;;;;;;10.79;41.04;101747.72;5083340;28;20025;-66
2022/03/05 11:19:22;;;;;;;6.97;1.30;;;;;;;11.09;39.83;101746.34;5082694;28;20021;-67
2022/03/05 11:21:48;;;;;;;6.93;1.75;;;;;;;10.27;39.24;101759.97;5083581;28;20054;-67
2022/03/05 11:24:15;;;;;;;2.67;1.40;;;;;;;8.95;40.32;101747.34;5083836;28;20027;-67
2022/03/05 11:26:41;;;;;;;4.15;1.60;;;;;;;8.50;42.17;101757.63;5083563;28;20021;-67